Time;durP1;ratioP1;P1;durP2;ratioP2;P2;SDS_P1;SDS_P2;PMS_P1;PMS_P2;Temp;Humidity;BMP_temperature;BMP_pressure;BME280_temperature;BME280_humidity;BME280_pressure;Samples;Min_cycle;Max_cycle;Signal;HPM_P1;HPM_P2
2023/04/24 00:01:13;;;;;;;6.97;6.32;;;;;;;14.38;42.42;94674.63;5014504;28;20222;-68
2023/04/24 00:03:38;;;;;;;6.85;5.88;;;;;;;14.37;42.95;94656.25;5013029;28;20195;-69
2023/04/24 00:06:06;;;;;;;7.18;5.75;;;;;;;14.26;45.14;94660.19;5012794;28;20268;-68
2023/04/24 00:08:32;;;;;;;9.10;6.47;;;;;;;14.28;46.64;94659.00;5011568;28;20255;-69
2023/04/24 00:10:57;;;;;;;7.88;5.97;;;;;;;14.35;46.84;94659.09;5003085;28;20305;-69
2023/04/24 00:13:23;;;;;;;8.35;6.30;;;;;;;14.28;47.83;94652.91;5013205;28;20222;-69
2023/04/24 00:15:48;;;;;;;7.82;6.32;;;;;;;14.17;47.94;94648.09;5015057;28;20257;-69
2023/04/24 00:18:14;;;;;;;7.82;6.05;;;;;;;14.09;49.14;94638.41;5014968;28;20195;-69
2023/04/24 00:20:39;;;;;;;6.40;5.75;;;;;;;14.04;48.74;94646.88;5010937;28;20306;-69
2023/04/24 00:23:05;;;;;;;8.05;6.15;;;;;;;14.04;48.48;94646.88;5016050;28;20695;-69
2023/04/24 00:25:30;;;;;;;7.95;6.53;;;;;;;13.78;49.20;94633.28;5013204;28;20222;-69
2023/04/24 00:27:55;;;;;;;6.72;6.10;;;;;;;13.75;49.79;94631.81;5018161;28;20230;-68
2023/04/24 00:30:21;;;;;;;8.50;7.03;;;;;;;13.80;49.66;94640.03;5020013;28;20186;-68
2023/04/24 00:32:47;;;;;;;6.60;5.72;;;;;;;13.86;49.27;94638.47;5026923;28;20594;-68
2023/04/24 00:35:12;;;;;;;8.23;6.13;;;;;;;13.59;48.37;94638.09;5013676;28;20225;-69
2023/04/24 00:37:37;;;;;;;6.90;5.28;;;;;;;13.60;47.34;94633.63;5012589;28;20726;-69
2023/04/24 00:40:03;;;;;;;7.50;4.97;;;;;;;13.50;47.19;94635.69;5013966;28;20230;-69
2023/04/24 00:42:29;;;;;;;7.03;4.70;;;;;;;13.37;45.94;94629.22;5016342;28;20187;-69
2023/04/24 00:44:56;;;;;;;4.75;4.25;;;;;;;12.77;46.79;94638.66;5017208;28;20218;-69
2023/04/24 00:47:22;;;;;;;5.88;4.82;;;;;;;12.83;47.10;94637.19;5014226;28;20232;-69
2023/04/24 00:49:47;;;;;;;10.05;6.93;;;;;;;12.65;50.04;94639.25;5012738;28;20305;-69
2023/04/24 00:52:17;;;;;;;10.68;7.78;;;;;;;12.71;50.97;94634.09;5012817;28;20305;-69
2023/04/24 00:54:44;;;;;;;9.95;6.88;;;;;;;12.73;50.85;94631.31;5019112;28;20689;-69
2023/04/24 00:57:12;;;;;;;9.15;7.20;;;;;;;13.11;49.80;94634.00;5018320;28;20178;-70
2023/04/24 00:59:38;;;;;;;8.20;6.70;;;;;;;13.02;49.03;94642.00;5013374;28;20631;-70
2023/04/24 01:02:04;;;;;;;8.52;6.03;;;;;;;13.18;48.35;94643.69;5012291;28;20219;-69
2023/04/24 01:04:44;;;;;;;7.38;6.22;;;;;;;13.16;47.87;94644.88;5061851;28;20575;-69
2023/04/24 01:07:11;;;;;;;7.88;5.45;;;;;;;13.04;47.34;94644.44;5062657;28;20571;-69
2023/04/24 01:09:44;;;;;;;7.28;5.30;;;;;;;13.15;46.57;94641.41;5066753;28;20216;-69
2023/04/24 01:12:09;;;;;;;5.32;4.82;;;;;;;13.22;46.69;94634.41;5064005;28;21002;-69
2023/04/24 01:14:36;;;;;;;6.18;5.47;;;;;;;13.30;47.79;94628.28;5065756;28;20217;-69
2023/04/24 01:17:01;;;;;;;6.68;5.80;;;;;;;13.38;48.77;94630.84;5062563;28;20232;-68
2023/04/24 01:19:27;;;;;;;7.57;5.60;;;;;;;13.47;49.06;94634.22;5064800;28;20221;-68
2023/04/24 01:21:58;;;;;;;7.75;5.40;;;;;;;13.43;48.46;94632.94;5058234;28;20235;-67
2023/04/24 01:24:23;;;;;;;6.38;5.47;;;;;;;13.46;49.15;94614.91;5061403;28;20255;-68
2023/04/24 01:26:49;;;;;;;5.57;4.88;;;;;;;13.46;48.47;94614.09;5051741;28;20578;-68
2023/04/24 01:29:14;;;;;;;8.43;5.10;;;;;;;13.48;46.89;94608.66;5065502;28;20231;-68
2023/04/24 01:31:40;;;;;;;6.30;4.97;;;;;;;13.43;47.07;94604.72;5058611;28;20227;-68
2023/04/24 01:34:06;;;;;;;6.30;4.70;;;;;;;13.48;47.13;94604.19;5058522;28;20556;-69
2023/04/24 01:36:33;;;;;;;9.00;4.43;;;;;;;13.23;46.52;94616.72;5065404;28;20251;-68
2023/04/24 01:38:58;;;;;;;4.88;4.07;;;;;;;12.93;47.27;94605.25;5065344;28;20747;-68
2023/04/24 01:41:25;;;;;;;6.30;4.70;;;;;;;12.86;47.54;94605.16;5055732;28;20220;-68
2023/04/24 01:43:50;;;;;;;5.03;4.55;;;;;;;12.95;47.14;94592.72;5061251;28;20224;-68
2023/04/24 01:46:16;;;;;;;8.35;4.50;;;;;;;12.99;47.02;94597.47;5059590;28;20221;-69
2023/04/24 01:48:41;;;;;;;5.25;4.75;;;;;;;13.09;46.96;94599.84;5058855;28;20194;-68
2023/04/24 01:51:07;;;;;;;7.03;5.15;;;;;;;12.83;47.60;94599.41;5059326;28;20199;-68
2023/04/24 01:53:32;;;;;;;5.68;5.18;;;;;;;12.75;47.28;94593.19;5061192;28;20214;-68
2023/04/24 01:55:58;;;;;;;5.40;4.88;;;;;;;12.75;47.35;94595.84;5063909;28;20735;-68
2023/04/24 01:58:24;;;;;;;7.40;5.28;;;;;;;12.83;47.54;94587.03;5055204;28;20217;-68
2023/04/24 02:00:50;;;;;;;5.20;4.72;;;;;;;12.78;47.99;94598.13;5065565;28;20189;-67
2023/04/24 02:03:15;;;;;;;5.30;4.55;;;;;;;12.44;48.82;94595.03;5063292;28;20228;-67
2023/04/24 02:05:44;;;;;;;5.82;5.25;;;;;;;12.04;50.17;94604.78;5052002;28;20223;-67
2023/04/24 02:08:09;;;;;;;7.93;5.47;;;;;;;12.29;49.77;94593.13;5059677;28;20241;-67
2023/04/24 02:10:34;;;;;;;6.78;5.85;;;;;;;12.39;49.73;94597.38;5063144;28;20276;-67
2023/04/24 02:13:00;;;;;;;8.70;5.20;;;;;;;12.41;49.58;94584.84;5056050;28;20225;-67
2023/04/24 02:15:25;;;;;;;5.70;5.20;;;;;;;12.51;49.10;94593.31;5049756;28;20194;-67
2023/04/24 02:17:51;;;;;;;6.47;5.70;;;;;;;12.50;49.02;94584.59;5049251;28;20214;-67
2023/04/24 02:20:17;;;;;;;9.13;6.07;;;;;;;12.54;48.89;94583.28;5050127;28;20229;-67
2023/04/24 02:22:42;;;;;;;7.72;5.75;;;;;;;12.39;49.52;94589.47;5041996;28;20229;-67
2023/04/24 02:25:08;;;;;;;10.43;5.85;;;;;;;12.36;49.69;94594.06;5048783;28;20225;-67
2023/04/24 02:27:34;;;;;;;8.23;5.95;;;;;;;12.11;49.89;94584.66;5039792;28;20244;-67
2023/04/24 02:29:59;;;;;;;6.05;5.45;;;;;;;11.91;50.73;94592.94;5049320;28;20218;-67
2023/04/24 02:32:25;;;;;;;7.15;6.00;;;;;;;11.75;51.11;94595.59;5054373;28;20216;-68
2023/04/24 02:34:50;;;;;;;6.07;5.45;;;;;;;11.67;51.05;94590.38;5043365;28;20303;-68
2023/04/24 02:37:15;;;;;;;5.90;5.30;;;;;;;11.69;50.91;94580.50;5048451;28;20765;-67
2023/04/24 02:39:41;;;;;;;6.75;5.68;;;;;;;11.88;50.62;94585.38;5044628;28;20603;-68
2023/04/24 02:42:07;;;;;;;7.32;5.93;;;;;;;12.05;50.60;94582.69;5051617;28;20186;-68
2023/04/24 02:44:33;;;;;;;6.40;5.55;;;;;;;12.02;51.01;94568.03;5045259;28;20658;-68
2023/04/24 02:46:58;;;;;;;8.18;6.05;;;;;;;12.08;50.77;94571.81;5049020;28;20304;-67
2023/04/24 02:49:24;;;;;;;6.70;5.80;;;;;;;12.10;50.63;94565.38;5045595;28;20222;-68
2023/04/24 02:51:49;;;;;;;7.63;6.25;;;;;;;12.12;50.49;94563.38;5044640;28;20201;-68
2023/04/24 02:54:15;;;;;;;7.82;6.20;;;;;;;12.16;50.29;94563.03;5051345;28;20189;-68
2023/04/24 02:56:40;;;;;;;8.38;5.90;;;;;;;11.99;50.85;94567.56;5048100;28;20220;-68
2023/04/24 02:59:05;;;;;;;8.30;5.40;;;;;;;11.96;50.89;94571.38;5048875;28;20296;-67
2023/04/24 03:01:31;;;;;;;6.78;6.10;;;;;;;12.03;50.71;94571.50;5050276;28;20759;-68
2023/04/24 03:03:56;;;;;;;6.18;5.55;;;;;;;12.08;50.51;94579.72;5050101;28;20259;-69
2023/04/24 03:06:22;;;;;;;8.35;5.97;;;;;;;11.98;50.96;94579.13;5048774;28;20190;-69
2023/04/24 03:08:48;;;;;;;8.55;6.57;;;;;;;11.87;51.30;94581.13;5041812;28;20279;-68
2023/04/24 03:11:13;;;;;;;11.45;6.40;;;;;;;11.88;51.07;94582.75;5046018;28;20229;-68
2023/04/24 03:13:38;;;;;;;12.32;6.65;;;;;;;11.90;51.01;94586.06;5045449;28;20303;-68
2023/04/24 03:16:05;;;;;;;11.48;6.93;;;;;;;11.79;51.35;94580.31;5043704;28;20214;-67
2023/04/24 03:18:30;;;;;;;9.43;6.60;;;;;;;11.84;51.28;94586.72;5052962;28;20660;-67
2023/04/24 03:20:56;;;;;;;8.63;6.68;;;;;;;11.51;51.94;94578.06;5050811;28;20217;-67
2023/04/24 03:23:21;;;;;;;7.43;6.65;;;;;;;11.75;51.40;94579.00;5039555;28;20221;-67
2023/04/24 03:25:48;;;;;;;6.85;6.20;;;;;;;11.73;51.36;94580.97;5042347;28;20248;-67
2023/04/24 03:28:14;;;;;;;8.10;6.78;;;;;;;11.72;51.44;94581.97;5038905;28;20225;-67
2023/04/24 03:30:39;;;;;;;6.63;6.00;;;;;;;11.12;52.55;94577.94;5049064;28;20182;-67
2023/04/24 03:33:05;;;;;;;8.90;6.97;;;;;;;11.52;51.92;94589.41;5053640;28;20185;-66
2023/04/24 03:35:30;;;;;;;7.47;6.63;;;;;;;11.43;51.84;94576.25;5042562;28;20229;-67
2023/04/24 03:37:56;;;;;;;7.60;6.47;;;;;;;11.68;51.54;94578.84;5039905;28;20229;-69
2023/04/24 03:40:21;;;;;;;10.20;6.40;;;;;;;11.39;52.11;94582.88;5045527;28;20217;-67
2023/04/24 03:42:47;;;;;;;9.10;6.57;;;;;;;11.57;51.51;94584.47;5037378;28;20201;-68
2023/04/24 03:45:12;;;;;;;8.25;6.45;;;;;;;11.59;51.53;94579.84;5050749;28;20260;-68
2023/04/24 03:47:38;;;;;;;8.10;7.00;;;;;;;11.53;51.71;94576.09;5045950;28;20283;-69
2023/04/24 03:50:03;;;;;;;11.10;6.93;;;;;;;11.80;51.19;94580.13;5039358;28;20222;-69
2023/04/24 03:52:29;;;;;;;7.78;6.97;;;;;;;11.93;51.23;94581.44;5038636;28;20244;-69
2023/04/24 03:54:55;;;;;;;10.18;6.60;;;;;;;11.76;51.53;94586.75;5047974;28;20178;-69
2023/04/24 03:57:20;;;;;;;8.38;6.97;;;;;;;11.76;51.46;94580.63;5048894;28;20218;-69
2023/04/24 03:59:46;;;;;;;6.85;5.95;;;;;;;11.85;51.64;94585.72;5044807;28;20268;-68
2023/04/24 04:02:11;;;;;;;9.45;6.60;;;;;;;11.95;51.00;94582.06;5045855;28;20237;-69
2023/04/24 04:04:37;;;;;;;9.68;6.43;;;;;;;12.00;50.94;94587.66;5048240;28;20941;-63
2023/04/24 04:07:02;;;;;;;8.52;7.65;;;;;;;11.84;51.38;94589.34;5046952;28;21040;-64
2023/04/24 04:09:28;;;;;;;9.27;7.53;;;;;;;11.76;52.22;94596.44;5046619;28;20231;-64
2023/04/24 04:11:54;;;;;;;12.45;7.47;;;;;;;11.82;51.87;94591.31;5038658;28;20274;-64
2023/04/24 04:14:21;;;;;;;12.25;7.95;;;;;;;11.38;53.11;94583.84;5037696;28;20233;-63
2023/04/24 04:16:46;;;;;;;11.63;7.47;;;;;;;11.63;52.92;94589.91;5039531;28;20715;-63
2023/04/24 04:19:12;;;;;;;12.45;7.97;;;;;;;11.84;52.38;94591.97;5044294;28;20214;-63
2023/04/24 04:21:37;;;;;;;9.10;7.95;;;;;;;12.01;51.86;94584.84;5037207;28;20186;-64
2023/04/24 04:24:02;;;;;;;11.77;8.07;;;;;;;12.04;51.12;94587.16;5041315;28;20206;-68
2023/04/24 04:26:28;;;;;;;8.88;7.80;;;;;;;12.00;51.62;94583.22;5023289;28;20214;-68
2023/04/24 04:28:53;;;;;;;12.90;7.93;;;;;;;12.01;51.43;94592.75;5045330;28;20636;-68
2023/04/24 04:31:20;;;;;;;10.48;7.07;;;;;;;12.11;50.99;94590.75;5046645;28;20217;-68
2023/04/24 04:33:46;;;;;;;7.82;6.72;;;;;;;11.69;51.28;94591.03;5042328;28;20563;-68
2023/04/24 04:36:11;;;;;;;7.35;6.55;;;;;;;11.63;51.26;94589.91;5050486;28;20181;-65
2023/04/24 04:38:37;;;;;;;9.98;6.65;;;;;;;11.89;50.52;94602.00;5041114;28;20982;-64
2023/04/24 04:41:03;;;;;;;9.43;6.85;;;;;;;12.00;50.75;94599.03;5046219;28;20224;-69
2023/04/24 04:43:28;;;;;;;9.55;6.22;;;;;;;12.08;49.80;94603.44;5037576;28;20230;-67
2023/04/24 04:45:55;;;;;;;9.85;6.25;;;;;;;11.85;50.28;94601.50;5049542;28;20220;-67
2023/04/24 04:48:22;;;;;;;6.53;5.90;;;;;;;11.69;50.71;94602.38;5041984;28;20177;-63
2023/04/24 04:50:47;;;;;;;8.63;5.55;;;;;;;11.70;50.50;94619.00;5040690;28;20229;-68
2023/04/24 04:53:12;;;;;;;8.38;6.55;;;;;;;11.77;50.23;94619.16;5038992;28;20221;-70
2023/04/24 04:55:38;;;;;;;8.52;5.63;;;;;;;11.97;49.25;94611.72;5041877;28;20303;-64
2023/04/24 04:58:04;;;;;;;7.40;5.55;;;;;;;12.05;48.50;94609.03;5044067;28;20263;-65
2023/04/24 05:00:35;;;;;;;7.63;6.05;;;;;;;12.15;48.31;94617.56;5042560;28;20277;-64
2023/04/24 05:03:00;;;;;;;8.38;5.30;;;;;;;11.99;48.84;94622.91;5041772;28;20233;-67
2023/04/24 05:05:25;;;;;;;13.27;5.90;;;;;;;12.14;48.63;94622.03;5037668;28;20214;-69
2023/04/24 05:07:51;;;;;;;7.78;5.30;;;;;;;12.27;48.55;94620.63;5042457;28;20218;-69
2023/04/24 05:10:17;;;;;;;9.82;4.60;;;;;;;12.30;47.31;94615.06;5046007;28;20375;-69
2023/04/24 05:12:42;;;;;;;8.18;5.28;;;;;;;12.21;47.48;94618.69;5037474;28;20185;-68
2023/04/24 05:15:08;;;;;;;6.87;5.23;;;;;;;12.37;46.93;94615.97;5039499;28;20331;-69
2023/04/24 05:17:34;;;;;;;8.98;5.13;;;;;;;12.19;47.31;94624.16;5041958;28;20249;-69
2023/04/24 05:20:00;;;;;;;7.00;4.95;;;;;;;12.09;48.13;94621.72;5045948;28;20226;-65
2023/04/24 05:22:25;;;;;;;6.07;5.10;;;;;;;11.95;48.81;94625.06;5030231;28;20217;-65
2023/04/24 05:24:51;;;;;;;7.10;4.90;;;;;;;11.75;49.38;94621.94;5044865;28;20208;-64
2023/04/24 05:27:16;;;;;;;10.05;5.22;;;;;;;11.50;49.39;94620.38;5039957;28;20688;-67
2023/04/24 05:29:42;;;;;;;5.20;4.70;;;;;;;11.78;48.40;94623.44;5039607;28;20270;-67
2023/04/24 05:32:07;;;;;;;10.30;5.32;;;;;;;11.74;48.75;94612.41;5035514;28;20221;-66
2023/04/24 05:34:32;;;;;;;7.07;5.55;;;;;;;11.90;48.27;94622.13;5041289;28;20253;-67
2023/04/24 05:36:58;;;;;;;10.30;5.47;;;;;;;11.96;48.24;94615.34;5030940;28;20307;-69
2023/04/24 05:39:24;;;;;;;6.85;5.28;;;;;;;12.11;47.76;94613.66;5039632;28;20194;-67
2023/04/24 05:41:50;;;;;;;7.50;5.30;;;;;;;12.33;47.16;94617.34;5043124;28;20228;-66
2023/04/24 05:44:16;;;;;;;8.40;5.72;;;;;;;12.52;46.72;94621.34;5045203;28;20233;-66
2023/04/24 05:46:41;;;;;;;6.55;5.40;;;;;;;12.64;46.16;94616.50;5043910;28;20240;-66
2023/04/24 05:49:07;;;;;;;7.55;5.50;;;;;;;12.67;46.13;94622.28;5042794;28;20590;-67
2023/04/24 05:51:32;;;;;;;9.73;6.00;;;;;;;12.76;45.59;94625.66;5042578;28;20208;-65
2023/04/24 05:53:58;;;;;;;7.07;5.47;;;;;;;12.70;46.18;94619.28;5045062;28;20206;-66
2023/04/24 05:56:23;;;;;;;7.18;5.68;;;;;;;12.72;45.78;94614.66;5046167;28;20712;-66
2023/04/24 05:58:49;;;;;;;9.68;5.75;;;;;;;12.74;45.76;94615.28;5044679;28;20304;-64
2023/04/24 06:01:14;;;;;;;6.10;5.50;;;;;;;12.79;45.79;94620.03;5048245;28;20300;-68
2023/04/24 06:03:41;;;;;;;9.05;5.90;;;;;;;12.77;45.98;94617.56;5043196;28;20604;-68
2023/04/24 06:06:07;;;;;;;9.23;5.93;;;;;;;12.87;45.99;94619.97;5048617;28;20212;-68
2023/04/24 06:08:33;;;;;;;9.00;6.03;;;;;;;12.97;45.66;94610.03;5040347;28;20253;-68
2023/04/24 06:10:59;;;;;;;14.43;6.22;;;;;;;13.03;45.44;94611.13;5044996;28;20273;-69
2023/04/24 06:13:24;;;;;;;9.15;6.20;;;;;;;12.94;46.27;94622.75;5044599;28;20210;-70
2023/04/24 06:15:50;;;;;;;10.07;6.53;;;;;;;12.99;46.10;94607.19;5044777;28;20204;-69
2023/04/24 06:18:15;;;;;;;9.85;6.55;;;;;;;13.07;45.46;94611.59;5042890;28;20650;-68
2023/04/24 06:20:41;;;;;;;8.10;6.50;;;;;;;12.92;46.14;94614.19;5041292;28;20251;-65
2023/04/24 06:23:06;;;;;;;16.50;10.48;;;;;;;13.20;45.67;94604.75;5042931;28;20226;-65
2023/04/24 06:25:32;;;;;;;9.43;7.03;;;;;;;13.40;44.86;94613.00;5039314;28;20224;-65
2023/04/24 06:27:58;;;;;;;10.18;8.93;;;;;;;13.42;44.87;94615.47;5042971;28;20576;-66
2023/04/24 06:30:23;;;;;;;11.98;7.70;;;;;;;13.55;44.89;94609.56;5045443;28;20189;-68
2023/04/24 06:32:49;;;;;;;11.15;6.78;;;;;;;13.54;45.02;94614.03;5044164;28;20583;-73
2023/04/24 06:35:14;;;;;;;9.60;7.25;;;;;;;13.59;45.43;94611.66;5040399;28;20236;-67
2023/04/24 06:37:41;;;;;;;12.45;7.93;;;;;;;13.73;44.48;94607.41;5045504;28;20386;-69
2023/04/24 06:40:08;;;;;;;10.43;7.28;;;;;;;13.65;44.99;94605.66;5061988;28;20242;-71
2023/04/24 06:42:34;;;;;;;16.55;8.13;;;;;;;13.84;44.61;94608.75;5038456;28;20184;-70
2023/04/24 06:45:00;;;;;;;12.55;7.22;;;;;;;13.94;44.64;94624.38;5040677;28;20214;-71
2023/04/24 06:47:25;;;;;;;12.40;7.57;;;;;;;14.05;44.37;94623.91;5045088;28;20288;-70
2023/04/24 06:49:52;;;;;;;11.82;7.70;;;;;;;14.12;43.83;94625.63;5040034;28;20229;-70
2023/04/24 06:52:18;;;;;;;11.35;7.78;;;;;;;13.98;44.57;94620.34;5045094;28;20228;-72
2023/04/24 06:54:43;;;;;;;9.70;7.53;;;;;;;13.97;44.65;94616.88;5044065;28;20574;-70
2023/04/24 06:57:10;;;;;;;9.40;7.85;;;;;;;14.00;44.48;94628.91;5043526;28;20190;-71
2023/04/24 06:59:35;;;;;;;9.38;8.07;;;;;;;14.11;44.27;94624.00;5041306;28;20218;-72
2023/04/24 07:02:01;;;;;;;11.75;7.72;;;;;;;14.24;44.28;94619.88;5042436;28;20231;-70
2023/04/24 07:04:26;;;;;;;11.35;7.60;;;;;;;14.29;44.43;94612.22;5043195;28;20230;-67
2023/04/24 07:06:55;;;;;;;8.38;7.53;;;;;;;14.32;44.26;94614.50;5022082;28;20248;-69
2023/04/24 07:09:22;;;;;;;9.77;7.40;;;;;;;14.33;44.21;94602.94;5043551;28;20275;-65
2023/04/24 07:11:48;;;;;;;9.27;7.85;;;;;;;14.35;44.04;94608.81;5041032;28;20227;-71
2023/04/24 07:14:13;;;;;;;8.60;7.78;;;;;;;14.35;43.63;94611.47;5044195;28;20236;-70
2023/04/24 07:16:39;;;;;;;9.70;7.88;;;;;;;13.99;44.77;94606.97;5038112;28;20253;-70
2023/04/24 07:19:05;;;;;;;10.60;8.55;;;;;;;14.09;44.84;94604.03;5044600;28;20217;-71
2023/04/24 07:21:31;;;;;;;12.82;7.15;;;;;;;14.24;44.32;94610.13;5043936;28;20182;-67
2023/04/24 07:23:57;;;;;;;10.90;8.45;;;;;;;14.42;43.87;94606.28;5046036;28;20245;-65
2023/04/24 07:26:23;;;;;;;12.82;8.05;;;;;;;14.51;43.59;94599.84;5038988;28;20217;-69
2023/04/24 07:28:48;;;;;;;11.32;7.75;;;;;;;14.64;43.52;94604.53;5041278;28;20276;-66
2023/04/24 07:31:14;;;;;;;9.98;8.80;;;;;;;14.75;43.26;94586.34;5042780;28;20221;-68
2023/04/24 07:33:39;;;;;;;12.35;8.02;;;;;;;14.93;43.06;94582.44;5043372;28;20557;-70
2023/04/24 07:36:05;;;;;;;9.10;8.10;;;;;;;14.98;42.69;94582.69;5041367;28;20181;-68
2023/04/24 07:38:31;;;;;;;8.55;7.30;;;;;;;14.94;42.70;94582.25;5043883;28;20252;-69
2023/04/24 07:40:56;;;;;;;9.27;7.03;;;;;;;14.95;42.42;94585.72;5046858;28;20217;-71
2023/04/24 07:43:23;;;;;;;8.90;7.13;;;;;;;14.84;42.70;94570.34;5043977;28;20233;-72
2023/04/24 07:45:49;;;;;;;9.30;8.07;;;;;;;14.96;43.04;94582.84;5046354;28;20220;-71
2023/04/24 07:48:16;;;;;;;8.15;6.50;;;;;;;14.56;43.70;94582.44;5041717;28;20910;-70
2023/04/24 07:50:42;;;;;;;7.63;6.15;;;;;;;14.67;43.33;94578.50;5045023;28;20339;-69
2023/04/24 07:53:07;;;;;;;8.10;6.70;;;;;;;14.77;43.39;94579.00;5041035;28;20229;-63
2023/04/24 07:55:33;;;;;;;6.20;5.57;;;;;;;15.03;43.02;94577.66;5043408;28;20233;-63
2023/04/24 07:57:58;;;;;;;6.85;5.47;;;;;;;15.20;42.57;94579.00;5046334;28;20567;-70
2023/04/24 08:00:23;;;;;;;7.70;6.00;;;;;;;15.33;42.15;94566.88;5043510;28;20189;-71
2023/04/24 08:02:49;;;;;;;7.32;6.10;;;;;;;15.42;42.15;94571.88;5046078;28;20263;-70
2023/04/24 08:05:14;;;;;;;6.90;6.28;;;;;;;15.47;41.94;94559.84;5040846;28;20238;-67
2023/04/24 08:07:42;;;;;;;8.77;6.10;;;;;;;15.59;42.01;94567.09;5040902;28;20221;-67
2023/04/24 08:10:10;;;;;;;8.93;6.38;;;;;;;15.70;42.24;94572.91;5044857;28;20221;-63
2023/04/24 08:12:35;;;;;;;8.48;6.88;;;;;;;15.80;41.80;94568.06;5039930;28;20211;-67
2023/04/24 08:15:01;;;;;;;9.43;6.97;;;;;;;15.94;41.08;94567.13;5044185;28;20213;-67
2023/04/24 08:17:26;;;;;;;9.55;7.00;;;;;;;15.78;41.45;94559.50;5040541;28;20255;-72
2023/04/24 08:19:58;;;;;;;9.77;6.95;;;;;;;15.86;41.87;94562.78;5047277;28;20221;-65
2023/04/24 08:22:24;;;;;;;9.77;6.50;;;;;;;16.18;41.21;94549.09;5042973;28;20224;-69
2023/04/24 08:24:49;;;;;;;7.03;6.28;;;;;;;15.97;41.31;94552.66;5046684;28;20198;-70
2023/04/24 08:27:15;;;;;;;8.48;6.22;;;;;;;15.83;41.78;94557.06;5045558;28;20280;-68
2023/04/24 08:29:40;;;;;;;8.00;6.07;;;;;;;15.86;41.89;94543.44;5042216;28;20287;-68
2023/04/24 08:32:06;;;;;;;6.72;6.10;;;;;;;16.05;41.26;94544.53;5049404;28;20224;-65
2023/04/24 08:34:31;;;;;;;7.60;6.38;;;;;;;16.17;41.49;94548.28;5045372;28;20218;-68
2023/04/24 08:36:57;;;;;;;8.23;6.30;;;;;;;16.23;41.02;94547.47;5047686;28;20225;-69
2023/04/24 08:39:22;;;;;;;8.88;6.63;;;;;;;16.29;40.93;94544.03;5044024;28;20557;-69
2023/04/24 08:41:48;;;;;;;8.63;6.40;;;;;;;16.39;41.18;94538.34;5048657;28;20269;-70
2023/04/24 08:44:15;;;;;;;8.07;6.35;;;;;;;16.56;40.81;94543.31;5049551;28;20245;-67
2023/04/24 08:46:45;;;;;;;6.68;6.03;;;;;;;16.32;40.57;94525.06;5042605;28;20240;-65
2023/04/24 08:49:12;;;;;;;6.43;5.65;;;;;;;16.35;41.43;94533.63;5046374;28;20253;-66
2023/04/24 08:51:39;;;;;;;6.35;5.68;;;;;;;16.45;40.89;94526.94;5046357;28;20803;-69
2023/04/24 08:54:04;;;;;;;235.45;25.95;;;;;;;16.34;41.23;94526.72;5041023;28;20300;-72
2023/04/24 08:56:33;;;;;;;18.90;6.18;;;;;;;16.47;41.05;94526.75;5043304;28;20384;-69
2023/04/24 08:58:59;;;;;;;9.63;6.45;;;;;;;16.40;40.70;94515.28;5050176;28;20307;-68
2023/04/24 09:01:25;;;;;;;13.63;6.22;;;;;;;16.38;41.71;94512.81;5045460;28;20242;-69
2023/04/24 09:03:53;;;;;;;5.60;5.10;;;;;;;16.59;42.64;94516.34;5041553;28;20282;-65
2023/04/24 09:06:21;;;;;;;7.30;5.47;;;;;;;16.78;41.46;94512.13;5042301;28;20305;-69
2023/04/24 09:08:49;;;;;;;5.50;5.00;;;;;;;16.89;40.73;94514.19;5038713;28;20218;-68
2023/04/24 09:11:15;;;;;;;5.90;5.35;;;;;;;17.07;40.93;94510.94;5042028;28;20300;-66
2023/04/24 09:13:41;;;;;;;7.82;5.30;;;;;;;17.14;38.64;94506.44;5041087;28;20316;-66
2023/04/24 09:16:07;;;;;;;7.15;4.78;;;;;;;17.02;39.60;94505.41;5037747;28;20680;-64
2023/04/24 09:18:33;;;;;;;7.18;4.65;;;;;;;17.09;40.88;94492.97;5042872;28;20285;-65
2023/04/24 09:21:06;;;;;;;5.10;4.60;;;;;;;17.47;39.56;94498.44;5042639;28;20348;-68
2023/04/24 09:23:32;;;;;;;6.38;4.50;;;;;;;17.34;39.78;94491.28;5039601;28;20260;-72
2023/04/24 09:26:00;;;;;;;6.75;5.05;;;;;;;17.42;40.27;94493.72;5048280;28;20253;-69
2023/04/24 09:28:46;;;;;;;8.98;5.10;;;;;;;17.40;39.57;94484.31;5040977;28;20228;-65
2023/04/24 09:31:19;;;;;;;8.88;5.82;;;;;;;17.47;39.40;94479.81;5046629;28;20221;-62
2023/04/24 09:33:53;;;;;;;5.80;4.80;;;;;;;17.58;40.12;94484.50;5047672;28;20181;-61
2023/04/24 09:36:19;;;;;;;7.63;4.90;;;;;;;17.75;39.17;94473.41;5047051;28;20268;-63
2023/04/24 09:38:45;;;;;;;7.38;5.10;;;;;;;17.71;39.00;94470.38;5045527;28;20285;-63
2023/04/24 09:41:13;;;;;;;5.40;4.90;;;;;;;17.75;38.49;94468.09;5049402;28;20312;-65
2023/04/24 09:43:39;;;;;;;4.80;4.13;;;;;;;17.77;38.47;94474.84;5044346;28;20253;-64
2023/04/24 09:46:09;;;;;;;5.60;5.03;;;;;;;17.91;38.59;94472.16;5042759;28;20622;-65
2023/04/24 09:48:38;;;;;;;7.28;4.95;;;;;;;17.90;37.97;94473.19;5046315;28;20645;-64
2023/04/24 09:51:06;;;;;;;7.60;4.93;;;;;;;17.92;39.62;94471.97;5049105;28;20292;-65
2023/04/24 09:53:32;;;;;;;7.72;5.03;;;;;;;17.85;38.48;94468.50;5045828;28;20256;-64
2023/04/24 09:56:12;;;;;;;5.60;4.40;;;;;;;17.94;38.96;94474.44;5050590;28;20237;-64
2023/04/24 09:58:38;;;;;;;5.40;4.22;;;;;;;18.34;37.24;94453.78;5047023;28;20221;-64
2023/04/24 10:01:04;;;;;;;8.98;4.50;;;;;;;18.34;37.62;94453.78;5048319;28;20218;-65
2023/04/24 10:03:30;;;;;;;6.50;4.70;;;;;;;18.50;36.43;94447.94;5048902;28;20331;-65
2023/04/24 10:06:00;;;;;;;8.63;5.00;;;;;;;18.57;36.97;94450.53;5044239;28;20582;-64
2023/04/24 10:08:32;;;;;;;6.55;5.03;;;;;;;18.64;36.75;94445.19;5050713;28;20336;-65
2023/04/24 10:10:59;;;;;;;5.80;4.82;;;;;;;18.93;36.26;94435.78;5045914;28;20221;-65
2023/04/24 10:13:25;;;;;;;7.43;5.03;;;;;;;18.90;35.96;94430.91;5045634;28;20304;-64
2023/04/24 10:15:51;;;;;;;6.95;4.97;;;;;;;19.03;36.29;94424.63;5045490;28;20250;-63
2023/04/24 10:18:18;;;;;;;8.20;4.55;;;;;;;19.15;36.29;94422.88;5045596;28;20728;-62
2023/04/24 10:20:44;;;;;;;4.85;4.38;;;;;;;19.37;35.89;94415.28;5051347;28;20221;-63
2023/04/24 10:23:11;;;;;;;7.68;4.00;;;;;;;19.47;34.74;94420.13;5044502;28;20225;-62
2023/04/24 10:25:36;;;;;;;8.45;4.68;;;;;;;19.60;34.08;94403.97;5049121;28;20225;-62
2023/04/24 10:28:03;;;;;;;5.80;4.43;;;;;;;19.79;33.78;94408.28;5046604;28;20218;-62
2023/04/24 10:30:35;;;;;;;8.15;4.43;;;;;;;19.79;34.00;94407.47;5046030;28;20191;-66
2023/04/24 10:33:04;;;;;;;5.68;4.63;;;;;;;20.09;34.97;94399.50;5057820;28;20246;-64
2023/04/24 10:35:42;;;;;;;6.68;4.35;;;;;;;20.34;34.35;94391.38;5042177;28;20214;-66
2023/04/24 10:38:16;;;;;;;5.07;4.40;;;;;;;20.51;33.67;94402.19;5026187;28;20287;-66
2023/04/24 10:40:42;;;;;;;5.82;4.18;;;;;;;20.39;34.39;94398.66;5047764;28;20224;-65
2023/04/24 10:43:10;;;;;;;7.40;5.35;;;;;;;20.68;34.53;94400.50;5036152;28;20230;-66
2023/04/24 10:45:37;;;;;;;7.25;4.20;;;;;;;20.77;32.66;94395.69;5032360;28;20213;-65
2023/04/24 10:48:06;;;;;;;6.18;5.25;;;;;;;20.80;31.90;94386.38;5038417;28;20197;-66
2023/04/24 10:50:51;;;;;;;7.57;5.18;;;;;;;20.90;32.61;94381.25;5049322;28;20249;-68
2023/04/24 10:53:23;;;;;;;7.57;4.75;;;;;;;21.15;32.66;94383.72;5051339;28;20379;-67
2023/04/24 10:55:51;;;;;;;5.75;4.63;;;;;;;21.39;31.51;94379.22;5038401;28;20205;-67
2023/04/24 10:58:21;;;;;;;4.93;4.43;;;;;;;21.43;30.74;94379.56;5033042;28;20217;-67
2023/04/24 11:00:57;;;;;;;5.40;3.65;;;;;;;21.66;31.01;94362.66;5031276;28;20185;-67
2023/04/24 11:03:24;;;;;;;9.45;4.28;;;;;;;21.63;30.60;94357.78;5039054;28;20224;-67
2023/04/24 11:06:07;;;;;;;7.80;3.80;;;;;;;21.80;29.88;94364.00;5035590;28;20214;-68
2023/04/24 11:08:36;;;;;;;5.55;4.25;;;;;;;21.95;28.30;94366.19;5038369;28;20229;-67
2023/04/24 11:11:04;;;;;;;5.45;3.72;;;;;;;21.51;28.50;94350.56;5036309;28;20316;-68
2023/04/24 11:13:54;;;;;;;5.85;3.58;;;;;;;21.08;29.21;94357.09;5038517;28;20218;-66
2023/04/24 11:16:29;;;;;;;6.88;4.28;;;;;;;20.88;30.22;94345.97;5037068;28;20968;-66
2023/04/24 11:19:19;;;;;;;4.50;3.47;;;;;;;20.62;29.40;94348.03;5032206;28;20185;-65
2023/04/24 11:21:53;;;;;;;6.28;3.83;;;;;;;20.28;30.65;94358.34;5035004;28;20682;-66
2023/04/24 11:24:39;;;;;;;4.32;3.38;;;;;;;19.92;31.72;94379.81;5036186;28;20199;-65
2023/04/24 11:27:11;;;;;;;4.95;4.25;;;;;;;19.86;32.38;94391.38;5032260;28;20355;-69
2023/04/24 11:29:46;;;;;;;4.93;3.72;;;;;;;19.75;32.59;94391.13;5034946;28;20222;-68